Keesler Air Force Base
KBIX : now visible

Airfield :











YOU CAN JOIN US ON...

 
LOGIN :

Register | Disclaimer

   EN    FR    IT 

 









Legend :    VFR   Marginal VFR   IFR   Intensive IFR   Very Intensive IFR
Visi :
Ceiling :
>= 8 km
>= 3000ft
5 to 8 km
1000 to 3000 ft
1500m to 5 km
500 to 1000 ft
800 to 1500m
200 to 500 ft
< 800m
< 200 ft
Symbols :   Thunderstorms  Fog  Heavy snow  Heavy precipitations  Wind > 20 kt







- Airport Elevation : 33 ft


KBIX - Keesler Air Force Base

CURRENT METAR :
  • 162156Z AUTO 17004KT 10SM FEW160 31/22 A2997 RMK AO2 SLP152 T03080215

EXPIRED METARs :
  • 162056Z AUTO 09005KT 10SM BKN140 30/23 A2999 RMK AO2 SLP158 T03040225 58018
  • 161956Z AUTO 13006KT 10SM SCT140 30/22 A3001 RMK AO2 SLP165 T03040223

TAF AMD TAF KBIX
Valid from the 16 at 20:00 until the 18 at 00:00 UTC


162000Z 1620/1724 13008KT 9999 SCT140 QNH2997INS
BECMG 1700/1701 11006KT 9999 SCT020 QNH2994INS
TEMPO 1708/1712 3200 BR
BECMG 1712/1713 08005KT 9999 BKN150 QNH2999INS TX33/1718Z TN26/1712Z
No reported NOTAMs for that airfield.



MET'MAP, your aeronautical weather chart ! - Copyright ORBIFLY December 2007 - Disclaimer

ORBIFLY MET'MAP TEAM :

Programming & Development : Alexandra Zaïnal
Concept & Development : Baudouin d'Aumeries
Co-Development & Prog : Marc-Olivier Méhu
Technical & hardware support : Manuel Goepfert

Contact : metmap@orbifly.com




SOURCES & CREDITS :

   NOAA       Earth
Advisory